createdAt,value
2023-03-06T00:07:00.407Z,5.91
2023-03-06T00:09:28.337Z,6.26
2023-03-06T00:11:56.338Z,5.55
2023-03-06T00:14:24.243Z,4.08
2023-03-06T00:16:58.730Z,2.99
2023-03-06T00:19:27.629Z,2.71
2023-03-06T00:21:55.509Z,4.30
2023-03-06T00:24:23.498Z,5.89
2023-03-06T00:26:51.497Z,6.33
2023-03-06T00:29:19.413Z,5.19
2023-03-06T00:31:48.122Z,3.77
2023-03-06T00:34:16.235Z,2.75
2023-03-06T00:36:44.325Z,2.49
2023-03-06T00:39:12.247Z,4.21
2023-03-06T00:41:40.261Z,5.84
2023-03-06T00:44:08.440Z,6.39
2023-03-06T00:46:37.024Z,5.07
2023-03-06T00:49:04.964Z,3.61
2023-03-06T00:51:33.126Z,2.58
2023-03-06T00:54:01.550Z,2.42
2023-03-06T00:56:30.247Z,4.28
2023-03-06T01:03:44.795Z,5.16
2023-03-06T01:06:12.769Z,3.58
2023-03-06T01:08:40.713Z,2.93
2023-03-06T01:11:08.817Z,4.50
2023-03-06T01:13:36.858Z,6.06
2023-03-06T01:16:08.074Z,6.55
2023-03-06T01:18:37.205Z,5.06
2023-03-06T01:21:05.667Z,3.60
2023-03-06T01:23:33.662Z,3.04
2023-03-06T01:26:02.282Z,4.44
2023-03-06T01:28:31.802Z,5.91
2023-03-06T01:31:04.976Z,6.41
2023-03-06T01:33:33.668Z,4.98
2023-03-06T01:36:11.723Z,3.50
2023-03-06T01:38:40.617Z,3.02
2023-03-06T01:41:10.961Z,4.60
2023-03-06T01:43:41.780Z,5.89
2023-03-06T01:46:30.866Z,6.46
2023-03-06T01:50:16.095Z,6.70
2023-03-06T01:52:50.512Z,4.24
2023-03-06T01:59:28.995Z,5.69
2023-03-06T02:02:01.881Z,6.41
2023-03-06T02:04:30.322Z,6.30
2023-03-06T02:07:06.081Z,4.88
2023-03-06T02:09:37.732Z,3.56
2023-03-06T02:12:13.575Z,3.98
2023-03-06T02:14:42.800Z,5.62
2023-03-06T02:17:14.328Z,6.66
2023-03-06T02:19:54.114Z,6.15
2023-03-06T02:22:25.555Z,4.30
2023-03-06T02:25:05.179Z,3.30
2023-03-06T02:27:34.945Z,4.66
2023-03-06T02:30:08.041Z,6.06
2023-03-06T02:32:36.322Z,6.81
2023-03-06T02:35:04.882Z,6.90
2023-03-06T02:37:33.096Z,5.46
2023-03-06T02:40:29.648Z,3.96
2023-03-06T02:42:58.909Z,3.28
2023-03-06T02:45:38.761Z,4.52
2023-03-06T02:48:07.812Z,5.98
2023-03-06T02:50:35.837Z,6.90
2023-03-06T02:53:04.380Z,6.88
2023-03-06T02:55:33.183Z,5.40
2023-03-06T02:58:02.546Z,3.86
2023-03-06T03:00:32.131Z,3.19
2023-03-06T03:03:29.170Z,4.46
2023-03-06T03:06:00.269Z,6.05
2023-03-06T03:08:32.406Z,6.92
2023-03-06T03:11:06.427Z,6.90
2023-03-06T03:13:39.670Z,5.43
2023-03-06T03:16:14.281Z,4.12
2023-03-06T03:18:48.271Z,3.66
2023-03-06T03:21:18.779Z,4.82
2023-03-06T03:23:48.704Z,6.16
2023-03-06T03:26:19.540Z,6.87
2023-03-06T03:28:53.000Z,7.01
2023-03-06T03:31:48.659Z,5.68
2023-03-06T03:34:17.176Z,4.01
2023-03-06T03:36:45.950Z,4.17
2023-03-06T03:39:14.232Z,5.45
2023-03-06T03:41:42.755Z,6.60
2023-03-06T03:44:11.184Z,7.09
2023-03-06T03:46:39.712Z,6.89
2023-03-06T03:49:11.765Z,5.28
2023-03-06T03:51:39.871Z,3.98
2023-03-06T03:58:53.257Z,6.38
2023-03-06T04:01:22.367Z,6.77
2023-03-06T04:03:51.196Z,6.58
2023-03-06T04:06:19.995Z,5.00
2023-03-06T04:08:48.398Z,3.61
2023-03-06T04:11:17.258Z,3.17
2023-03-06T04:13:45.382Z,4.53
2023-03-06T04:21:05.963Z,7.73
2023-03-06T04:23:34.639Z,5.98
2023-03-06T04:26:03.840Z,4.26
2023-03-06T04:28:31.999Z,3.73
2023-03-06T04:31:00.733Z,4.85
2023-03-06T04:38:15.053Z,6.27
2023-03-06T04:40:44.890Z,4.59
2023-03-06T04:43:13.276Z,3.94
2023-03-06T04:45:41.522Z,5.71
2023-03-06T04:48:14.350Z,6.86
2023-03-06T04:55:29.729Z,4.31
2023-03-06T04:57:59.125Z,3.58
2023-03-06T05:00:34.483Z,5.23
2023-03-06T05:03:02.758Z,6.78
2023-03-06T05:05:30.927Z,5.89
2023-03-06T05:07:59.160Z,4.31
2023-03-06T05:10:27.153Z,3.16
2023-03-06T05:12:55.049Z,2.78
2023-03-06T05:15:23.680Z,4.13
2023-03-06T05:22:02.202Z,7.28
2023-03-06T05:24:30.986Z,7.20
2023-03-06T05:26:59.312Z,5.79
2023-03-06T05:29:47.006Z,4.34
2023-03-06T05:32:17.142Z,3.46
2023-03-06T05:34:48.443Z,3.23
2023-03-06T05:37:16.403Z,4.94
2023-03-06T05:39:44.428Z,6.51
2023-03-06T05:42:12.390Z,7.01
2023-03-06T05:44:42.008Z,5.85
2023-03-06T05:47:11.420Z,4.51
2023-03-06T05:49:40.286Z,3.57
2023-03-06T05:52:08.799Z,3.89
2023-03-06T05:54:37.477Z,5.56
2023-03-06T05:57:06.259Z,6.80
2023-03-06T05:59:34.510Z,7.14
2023-03-06T06:02:04.080Z,5.87
2023-03-06T06:04:32.428Z,4.55
2023-03-06T06:07:01.853Z,3.64
2023-03-06T06:09:30.551Z,3.45
2023-03-06T06:12:01.830Z,5.21
2023-03-06T06:14:33.806Z,6.86
2023-03-06T06:17:07.784Z,7.41
2023-03-06T06:19:36.032Z,6.08
2023-03-06T06:22:04.926Z,4.87
2023-03-06T06:24:33.162Z,4.09
2023-03-06T06:27:03.725Z,3.97
2023-03-06T06:29:32.678Z,5.67
2023-03-06T06:32:01.755Z,7.28
2023-03-06T06:34:30.754Z,7.83
2023-03-06T06:37:00.366Z,6.52
2023-03-06T06:39:30.819Z,5.26
2023-03-06T06:42:15.444Z,4.44
2023-03-06T06:44:51.660Z,4.41
2023-03-06T06:47:24.110Z,6.16
2023-03-06T06:49:56.838Z,7.70
2023-03-06T06:52:29.213Z,7.99
2023-03-06T06:54:58.146Z,6.72
2023-03-06T06:57:26.661Z,5.54
2023-03-06T06:59:54.858Z,4.56
2023-03-06T07:02:23.480Z,4.15
2023-03-06T07:05:43.416Z,5.62
2023-03-06T07:08:11.644Z,7.59
2023-03-06T07:10:40.178Z,7.73
2023-03-06T07:13:09.114Z,6.07
2023-03-06T07:15:38.502Z,4.73
2023-03-06T07:18:06.731Z,3.87
2023-03-06T07:20:34.972Z,3.80
2023-03-06T07:23:03.278Z,5.56
2023-03-06T07:25:33.481Z,7.02
2023-03-06T07:28:01.724Z,6.67
2023-03-06T07:30:30.349Z,5.24
2023-03-06T07:33:26.976Z,4.15
2023-03-06T07:35:55.157Z,4.18
2023-03-06T07:38:23.342Z,6.01
2023-03-06T07:40:57.461Z,7.05
2023-03-06T07:43:26.254Z,5.84
2023-03-06T07:46:01.214Z,4.64
2023-03-06T07:48:29.472Z,4.28
2023-03-06T07:50:58.051Z,6.08
2023-03-06T07:53:26.861Z,7.00
2023-03-06T07:55:55.986Z,5.76
2023-03-06T07:58:24.906Z,4.67
2023-03-06T08:00:54.125Z,4.37
2023-03-06T08:03:23.427Z,6.13
2023-03-06T08:05:51.543Z,7.28
2023-03-06T08:08:19.741Z,6.03
2023-03-06T08:10:49.493Z,4.96
2023-03-06T08:17:29.432Z,5.78
2023-03-06T08:19:58.325Z,7.28
2023-03-06T08:22:27.262Z,6.56
2023-03-06T08:24:56.470Z,5.48
2023-03-06T08:27:24.643Z,4.68
2023-03-06T08:29:54.034Z,4.77
2023-03-06T08:32:22.763Z,6.56
2023-03-06T08:34:51.801Z,6.22
2023-03-06T08:37:19.987Z,5.30
2023-03-06T08:39:48.311Z,4.53
2023-03-06T08:42:16.842Z,4.67
2023-03-06T08:44:45.576Z,6.88
2023-03-06T08:47:13.975Z,7.05
2023-03-06T08:49:42.104Z,6.00
2023-03-06T08:52:11.231Z,5.39
2023-03-06T08:54:39.834Z,5.06
2023-03-06T08:57:09.350Z,4.66
2023-03-06T08:59:38.218Z,4.28
2023-03-06T09:02:07.831Z,5.09
2023-03-06T09:04:36.435Z,7.22
2023-03-06T09:07:04.797Z,6.83
2023-03-06T09:09:33.784Z,5.92
2023-03-06T09:12:02.656Z,5.34
2023-03-06T09:14:31.582Z,5.02
2023-03-06T09:16:59.880Z,4.84
2023-03-06T09:19:28.660Z,4.70
2023-03-06T09:22:01.190Z,4.52
2023-03-06T09:24:30.017Z,4.35
2023-03-06T09:26:58.775Z,4.21
2023-03-06T09:29:26.903Z,4.79
2023-03-06T09:31:55.486Z,6.94
2023-03-06T09:34:23.776Z,6.71
2023-03-06T09:36:57.103Z,5.84
2023-03-06T09:39:27.347Z,5.26
2023-03-06T09:41:57.826Z,4.97
2023-03-06T09:44:31.144Z,4.87
2023-03-06T09:47:21.163Z,4.91
2023-03-06T09:49:55.676Z,4.93
2023-03-06T09:52:29.616Z,4.82
2023-03-06T09:55:09.326Z,4.72
2023-03-06T09:57:42.710Z,4.75
2023-03-06T10:00:35.937Z,4.84
2023-03-06T10:04:23.180Z,4.92
2023-03-06T10:06:53.642Z,4.92
2023-03-06T10:09:43.766Z,4.86
2023-03-06T10:12:26.157Z,4.86
2023-03-06T10:15:13.450Z,4.97
2023-03-06T10:17:43.553Z,5.12
2023-03-06T10:20:24.040Z,5.18
2023-03-06T10:23:05.149Z,5.20
2023-03-06T10:25:50.160Z,5.30
2023-03-06T10:28:29.659Z,5.39
2023-03-06T10:31:20.043Z,5.43
2023-03-06T10:38:31.964Z,5.52
2023-03-06T10:41:13.122Z,5.59
2023-03-06T10:43:43.946Z,5.67
2023-03-06T10:46:51.294Z,5.75
2023-03-06T10:49:35.103Z,5.79
2023-03-06T10:54:49.390Z,5.71
2023-03-06T11:02:37.496Z,5.96
2023-03-06T11:05:19.052Z,6.09
2023-03-06T11:08:25.342Z,6.21
2023-03-06T11:11:03.042Z,6.17
2023-03-06T11:13:41.181Z,6.05
2023-03-06T11:16:32.831Z,6.00
2023-03-06T11:19:10.507Z,6.00
2023-03-06T11:21:40.564Z,6.09
2023-03-06T11:24:21.860Z,6.15
2023-03-06T11:27:09.258Z,6.22
2023-03-06T11:29:43.549Z,6.23
2023-03-06T11:32:21.161Z,6.36
2023-03-06T11:35:06.082Z,6.41
2023-03-06T11:37:46.618Z,6.39
2023-03-06T11:40:24.920Z,6.40
2023-03-06T11:48:03.951Z,6.04
2023-03-06T11:50:39.926Z,6.15
2023-03-06T11:53:15.963Z,6.31
2023-03-06T11:56:01.305Z,6.34
2023-03-06T11:58:35.297Z,6.34
2023-03-06T12:01:13.995Z,6.39
2023-03-06T12:08:19.906Z,6.24
2023-03-06T12:10:57.798Z,6.16
2023-03-06T12:13:56.786Z,6.06
2023-03-06T12:17:05.903Z,5.96
2023-03-06T12:19:46.664Z,5.83
2023-03-06T12:22:33.532Z,5.74
2023-03-06T12:25:31.159Z,5.63
2023-03-06T12:32:35.373Z,5.66
2023-03-06T12:35:13.408Z,5.74
2023-03-06T12:37:41.673Z,5.77
2023-03-06T12:40:40.365Z,5.70
2023-03-06T12:43:20.983Z,5.62
2023-03-06T12:46:28.580Z,5.52
2023-03-06T12:49:32.557Z,5.43
2023-03-06T12:52:04.697Z,5.36
2023-03-06T12:54:37.858Z,5.32
2023-03-06T12:57:08.736Z,5.27
2023-03-06T12:59:38.102Z,5.23
2023-03-06T13:02:37.743Z,5.22
2023-03-06T13:05:18.783Z,5.21
2023-03-06T13:08:18.503Z,5.21
2023-03-06T13:11:06.814Z,5.20
2023-03-06T13:13:44.004Z,5.19
2023-03-06T13:16:32.361Z,5.14
2023-03-06T13:19:00.693Z,5.06
2023-03-06T13:21:50.264Z,4.99
2023-03-06T13:24:27.861Z,4.92
2023-03-06T13:27:10.510Z,4.80
2023-03-06T13:29:38.731Z,4.64
2023-03-06T13:32:29.374Z,4.46
2023-03-06T13:34:57.620Z,4.29
2023-03-06T13:37:25.587Z,4.19
2023-03-06T13:39:59.841Z,4.12
2023-03-06T13:42:28.537Z,4.07
2023-03-06T13:45:15.443Z,3.97
2023-03-06T13:52:42.779Z,5.52
2023-03-06T13:55:31.739Z,7.21
2023-03-06T13:58:18.043Z,6.42
2023-03-06T14:01:21.401Z,5.59
2023-03-06T14:04:11.137Z,5.15
2023-03-06T14:06:40.777Z,4.85
2023-03-06T14:09:45.832Z,4.61
2023-03-06T14:12:26.660Z,4.38
2023-03-06T14:14:58.561Z,4.35
2023-03-06T14:17:33.404Z,4.48
2023-03-06T14:20:13.448Z,4.66
2023-03-06T14:26:54.547Z,5.04
2023-03-06T14:29:26.376Z,5.11
2023-03-06T14:31:57.985Z,5.15
2023-03-06T14:35:06.696Z,5.19
2023-03-06T14:37:37.592Z,5.17
2023-03-06T14:40:11.451Z,5.10
2023-03-06T14:42:39.928Z,5.06
2023-03-06T14:45:17.160Z,5.08
2023-03-06T14:47:53.989Z,5.25
2023-03-06T14:50:27.819Z,5.36
2023-03-06T14:53:01.082Z,5.33
2023-03-06T14:55:33.457Z,5.24
2023-03-06T14:58:04.289Z,5.11
2023-03-06T15:00:42.266Z,4.97
2023-03-06T15:03:20.903Z,4.84
2023-03-06T15:05:51.180Z,4.73
2023-03-06T15:13:26.465Z,4.48
2023-03-06T15:16:22.376Z,4.36
2023-03-06T15:19:20.069Z,4.25
2023-03-06T15:21:51.950Z,4.16
2023-03-06T15:24:38.360Z,4.05
2023-03-06T15:27:16.590Z,3.88
2023-03-06T15:29:44.647Z,3.73
2023-03-06T15:32:15.794Z,3.62
2023-03-06T15:34:43.808Z,3.53
2023-03-06T15:37:28.962Z,3.48
2023-03-06T15:40:09.555Z,3.43
2023-03-06T15:42:37.853Z,3.39
2023-03-06T15:45:35.093Z,3.38
2023-03-06T15:48:17.223Z,3.39
2023-03-06T15:50:45.377Z,3.39
2023-03-06T15:53:13.373Z,3.40
2023-03-06T15:55:41.361Z,3.40
2023-03-06T15:58:15.276Z,3.40
2023-03-06T16:00:44.134Z,3.41
2023-03-06T16:03:13.625Z,3.40
2023-03-06T16:05:41.793Z,3.39
2023-03-06T16:08:15.301Z,3.37
2023-03-06T16:10:46.914Z,3.36
2023-03-06T16:14:06.475Z,3.32
2023-03-06T16:16:37.721Z,4.03
2023-03-06T16:19:26.715Z,6.36
2023-03-06T16:22:00.258Z,7.30
2023-03-06T16:24:29.340Z,5.63
2023-03-06T16:27:01.687Z,4.96
2023-03-06T16:29:30.642Z,6.43
2023-03-06T16:32:00.912Z,7.73
2023-03-06T16:35:08.291Z,7.76
2023-03-06T16:37:36.774Z,5.88
2023-03-06T16:40:07.986Z,4.76
2023-03-06T16:42:39.548Z,5.60
2023-03-06T16:45:08.438Z,7.19
2023-03-06T16:47:45.541Z,8.39
2023-03-06T16:50:25.962Z,8.04
2023-03-06T16:52:56.497Z,6.38
2023-03-06T16:55:27.040Z,5.16
2023-03-06T17:02:41.572Z,7.99
2023-03-06T17:05:12.113Z,8.31
2023-03-06T17:07:41.236Z,6.95
2023-03-06T17:14:20.245Z,5.94
2023-03-06T17:16:48.240Z,7.59
2023-03-06T17:19:16.376Z,7.69
2023-03-06T17:21:44.410Z,6.19
2023-03-06T17:24:12.366Z,4.96
2023-03-06T17:26:40.363Z,4.52
2023-03-06T17:29:09.706Z,5.98
2023-03-06T17:31:38.103Z,7.42
2023-03-06T17:34:06.468Z,7.49
2023-03-06T17:36:34.839Z,6.11
2023-03-06T17:39:04.134Z,4.94
2023-03-06T17:41:34.222Z,4.62
2023-03-06T17:44:02.284Z,6.16
2023-03-06T17:46:32.270Z,7.74
2023-03-06T17:49:00.609Z,8.17
2023-03-06T17:51:28.790Z,6.78
2023-03-06T17:53:57.641Z,5.46
2023-03-06T17:56:26.733Z,4.82
2023-03-06T17:58:55.552Z,6.33
2023-03-06T18:01:27.591Z,7.83
2023-03-06T18:03:56.925Z,7.17
2023-03-06T18:06:27.742Z,5.61
2023-03-06T18:08:56.359Z,4.61
2023-03-06T18:11:24.773Z,5.82
2023-03-06T18:13:53.008Z,7.30
2023-03-06T18:16:23.307Z,7.85
2023-03-06T18:18:53.518Z,6.47
2023-03-06T18:21:23.331Z,5.20
2023-03-06T18:23:51.473Z,4.70
2023-03-06T18:26:25.657Z,6.37
2023-03-06T18:28:56.428Z,7.81
2023-03-06T18:31:28.341Z,7.88
2023-03-06T18:33:59.266Z,6.47
2023-03-06T18:36:31.331Z,5.17
2023-03-06T18:39:01.062Z,4.74
2023-03-06T18:41:30.444Z,6.42
2023-03-06T18:44:00.793Z,7.76
2023-03-06T18:46:38.286Z,6.68
2023-03-06T18:49:07.765Z,5.11
2023-03-06T18:51:35.682Z,4.65
2023-03-06T18:54:05.328Z,6.31
2023-03-06T18:56:34.191Z,7.96
2023-03-06T18:59:05.580Z,7.82
2023-03-06T19:01:34.341Z,6.12
2023-03-06T19:04:04.613Z,5.26
2023-03-06T19:06:32.975Z,6.60
2023-03-06T19:09:02.445Z,7.45
2023-03-06T19:11:32.587Z,7.12
2023-03-06T19:14:00.692Z,5.61
2023-03-06T19:16:31.688Z,5.16
2023-03-06T19:18:59.685Z,6.62
2023-03-06T19:21:28.354Z,8.02
2023-03-06T19:23:57.434Z,7.71
2023-03-06T19:26:25.531Z,6.18
2023-03-06T19:28:53.761Z,5.34
2023-03-06T19:31:25.196Z,6.25
2023-03-06T19:33:54.921Z,7.89
2023-03-06T19:36:27.854Z,7.48
2023-03-06T19:38:57.340Z,5.93
2023-03-06T19:41:26.652Z,5.17
2023-03-06T19:43:58.435Z,6.20
2023-03-06T19:46:27.711Z,7.75
2023-03-06T19:48:58.055Z,7.39
2023-03-06T19:51:27.267Z,5.89
2023-03-06T19:53:56.418Z,5.09
2023-03-06T19:56:29.418Z,6.49
2023-03-06T19:58:57.899Z,7.93
2023-03-06T20:01:27.526Z,8.22
2023-03-06T20:03:59.455Z,6.69
2023-03-06T20:06:30.301Z,5.31
2023-03-06T20:08:58.789Z,4.88
2023-03-06T20:11:30.247Z,6.42
2023-03-06T20:14:00.765Z,8.06
2023-03-06T20:16:32.373Z,7.27
2023-03-06T20:19:02.603Z,5.81
2023-03-06T20:21:38.289Z,4.66
2023-03-06T20:24:08.676Z,4.39
2023-03-06T20:26:38.809Z,6.09
2023-03-06T20:29:06.943Z,7.55
2023-03-06T20:31:35.334Z,8.01
2023-03-06T20:34:05.056Z,6.81
2023-03-06T20:36:41.351Z,5.57
2023-03-06T20:39:13.380Z,4.68
2023-03-06T20:41:41.363Z,4.51
2023-03-06T20:44:17.434Z,5.91
2023-03-06T20:46:46.381Z,7.15
2023-03-06T20:49:14.884Z,7.94
2023-03-06T20:51:42.932Z,6.94
2023-03-06T20:54:13.526Z,5.61
2023-03-06T20:56:43.377Z,4.55
2023-03-06T20:59:14.197Z,4.34
2023-03-06T21:01:44.358Z,5.89
2023-03-06T21:04:14.538Z,6.99
2023-03-06T21:06:46.910Z,5.90
2023-03-06T21:09:18.989Z,4.69
2023-03-06T21:11:50.777Z,3.88
2023-03-06T21:14:28.776Z,4.74
2023-03-06T21:16:57.272Z,6.33
2023-03-06T21:19:28.723Z,7.41
2023-03-06T21:22:01.750Z,6.27
2023-03-06T21:24:39.698Z,4.86
2023-03-06T21:27:07.614Z,3.99
2023-03-06T21:29:35.560Z,4.04
2023-03-06T21:32:03.739Z,5.78
2023-03-06T21:34:31.763Z,6.61
2023-03-06T21:36:59.664Z,5.72
2023-03-06T21:39:27.706Z,4.54
2023-03-06T21:41:56.532Z,4.19
2023-03-06T21:44:25.237Z,5.86
2023-03-06T21:46:56.553Z,7.25
2023-03-06T21:49:26.635Z,7.13
2023-03-06T21:51:55.012Z,5.65
2023-03-06T21:54:23.296Z,4.52
2023-03-06T21:56:51.348Z,4.13
2023-03-06T21:59:20.796Z,5.53
2023-03-06T22:01:49.144Z,7.06
2023-03-06T22:04:17.814Z,7.85
2023-03-06T22:06:46.219Z,6.60
2023-03-06T22:09:17.116Z,5.28
2023-03-06T22:11:45.690Z,4.28
2023-03-06T22:14:14.959Z,3.67
2023-03-06T22:16:42.979Z,4.47
2023-03-06T22:19:10.880Z,6.14
2023-03-06T22:21:38.748Z,6.89
2023-03-06T22:24:06.945Z,5.98
2023-03-06T22:26:34.931Z,4.76
2023-03-06T22:29:02.804Z,3.93
2023-03-06T22:31:30.860Z,4.28
2023-03-06T22:34:00.512Z,5.82
2023-03-06T22:36:30.855Z,6.24
2023-03-06T22:39:01.278Z,5.24
2023-03-06T22:41:30.183Z,4.10
2023-03-06T22:44:01.164Z,3.79
2023-03-06T22:46:30.300Z,5.11
2023-03-06T22:49:00.047Z,6.42
2023-03-06T22:51:28.822Z,6.99
2023-03-06T22:53:56.869Z,5.94
2023-03-06T22:56:25.299Z,4.71
2023-03-06T22:58:53.412Z,3.82
2023-03-06T23:01:25.403Z,3.52
2023-03-06T23:03:56.483Z,5.00
2023-03-06T23:06:28.638Z,6.53
2023-03-06T23:09:06.007Z,7.38
2023-03-06T23:11:53.044Z,7.32
2023-03-06T23:14:40.004Z,5.81
2023-03-06T23:17:26.924Z,4.58
2023-03-06T23:20:14.217Z,3.72
2023-03-06T23:23:00.475Z,3.11
2023-03-06T23:25:44.177Z,3.18
2023-03-06T23:28:12.384Z,4.79
2023-03-06T23:30:41.731Z,6.10
2023-03-06T23:33:10.584Z,6.87
2023-03-06T23:35:41.511Z,7.13
2023-03-06T23:38:09.425Z,5.86
2023-03-06T23:40:40.523Z,4.60
2023-03-06T23:43:08.498Z,3.74
2023-03-06T23:45:37.164Z,3.15
2023-03-06T23:48:08.058Z,3.00
2023-03-06T23:50:39.800Z,4.43
2023-03-06T23:53:07.693Z,6.25
2023-03-06T23:55:35.564Z,7.28
2023-03-06T23:58:03.576Z,7.53
